createdAt,value
2023-02-24T00:02:00.883Z,4.00
2023-02-24T00:04:33.192Z,3.00
2023-02-24T00:07:02.554Z,3.88
2023-02-24T00:09:31.803Z,3.70
2023-02-24T00:12:02.165Z,3.90
2023-02-24T00:14:32.278Z,3.85
2023-02-24T00:17:01.221Z,3.30
2023-02-24T00:19:32.678Z,4.07
2023-02-24T00:22:02.111Z,3.58
2023-02-24T00:24:30.655Z,3.40
2023-02-24T00:27:01.059Z,3.83
2023-02-24T00:29:32.500Z,3.15
2023-02-24T00:32:01.267Z,3.28
2023-02-24T00:34:33.590Z,4.20
2023-02-24T00:37:02.064Z,3.15
2023-02-24T00:39:33.469Z,3.63
2023-02-24T00:42:05.783Z,4.10
2023-02-24T00:44:36.291Z,3.88
2023-02-24T00:47:06.428Z,3.47
2023-02-24T00:49:42.579Z,3.60
2023-02-24T00:52:13.701Z,3.40
2023-02-24T00:54:42.481Z,3.42
2023-02-24T00:57:10.848Z,3.10
2023-02-24T00:59:39.889Z,3.00
2023-02-24T01:02:08.349Z,3.80
2023-02-24T01:04:38.742Z,3.00
2023-02-24T01:07:10.808Z,3.40
2023-02-24T01:09:41.537Z,3.47
2023-02-24T01:12:38.705Z,3.53
2023-02-24T01:15:10.146Z,3.87
2023-02-24T01:17:40.849Z,2.88
2023-02-24T01:20:19.063Z,2.90
2023-02-24T01:22:49.603Z,3.70
2023-02-24T01:25:20.307Z,3.53
2023-02-24T01:27:48.970Z,3.17
2023-02-24T01:30:18.424Z,3.28
2023-02-24T01:32:48.204Z,3.08
2023-02-24T01:35:18.701Z,2.80
2023-02-24T01:37:46.984Z,3.33
2023-02-24T01:40:21.480Z,3.38
2023-02-24T01:42:50.721Z,3.00
2023-02-24T01:45:22.840Z,3.13
2023-02-24T01:47:54.177Z,3.00
2023-02-24T01:50:26.400Z,2.77
2023-02-24T01:52:58.247Z,3.20
2023-02-24T01:55:32.013Z,2.90
2023-02-24T01:58:02.994Z,2.88
2023-02-24T02:00:38.103Z,2.80
2023-02-24T02:03:21.269Z,2.30
2023-02-24T02:05:51.964Z,2.97
2023-02-24T02:08:23.630Z,3.00
2023-02-24T02:10:59.236Z,3.10
2023-02-24T02:13:29.143Z,2.97
2023-02-24T02:16:15.377Z,3.65
2023-02-24T02:18:56.462Z,2.22
2023-02-24T02:22:02.401Z,2.88
2023-02-24T02:24:50.484Z,2.70
2023-02-24T02:27:34.685Z,2.70
2023-02-24T02:30:47.961Z,2.27
2023-02-24T02:33:52.404Z,2.97
2023-02-24T02:36:27.457Z,3.40
2023-02-24T02:39:05.676Z,2.50
2023-02-24T02:41:40.683Z,2.47
2023-02-24T02:44:13.970Z,3.00
2023-02-24T02:46:46.176Z,3.42
2023-02-24T02:49:18.992Z,2.30
2023-02-24T02:51:52.755Z,2.80
2023-02-24T02:54:28.297Z,2.65
2023-02-24T02:57:03.222Z,2.78
2023-02-24T02:59:35.063Z,2.47
2023-02-24T03:02:14.945Z,2.38
2023-02-24T03:04:51.730Z,3.08
2023-02-24T03:07:31.162Z,3.08
2023-02-24T03:10:06.459Z,2.15
2023-02-24T03:12:37.357Z,2.10
2023-02-24T03:15:12.270Z,2.60
2023-02-24T03:17:45.417Z,2.40
2023-02-24T03:20:22.006Z,2.63
2023-02-24T03:22:55.897Z,2.60
2023-02-24T03:25:30.793Z,2.80
2023-02-24T03:28:05.897Z,3.22
2023-02-24T03:30:41.896Z,2.20
2023-02-24T03:33:17.523Z,2.80
2023-02-24T03:35:46.846Z,2.40
2023-02-24T03:38:16.582Z,2.67
2023-02-24T03:40:45.115Z,2.25
2023-02-24T03:43:26.647Z,2.60
2023-02-24T03:45:57.344Z,2.88
2023-02-24T03:48:27.134Z,2.10
2023-02-24T03:50:59.394Z,2.70
2023-02-24T03:54:01.417Z,2.20
2023-02-24T03:56:41.256Z,2.50
2023-02-24T03:59:18.702Z,2.95
2023-02-24T04:01:58.061Z,2.20
2023-02-24T04:04:37.777Z,2.60
2023-02-24T04:07:18.776Z,2.42
2023-02-24T04:09:57.322Z,3.03
2023-02-24T04:12:31.031Z,2.30
2023-02-24T04:15:11.902Z,2.28
2023-02-24T04:17:44.701Z,2.50
2023-02-24T04:20:20.453Z,1.80
2023-02-24T04:23:03.841Z,2.58
2023-02-24T04:25:33.472Z,2.35
2023-02-24T04:28:04.074Z,2.47
2023-02-24T04:30:36.427Z,1.80
2023-02-24T04:33:06.599Z,1.90
2023-02-24T04:35:35.483Z,1.80
2023-02-24T04:38:04.859Z,2.22
2023-02-24T04:40:34.782Z,2.47
2023-02-24T04:43:03.189Z,2.63
2023-02-24T04:45:32.908Z,2.70
2023-02-24T04:48:03.179Z,2.00
2023-02-24T04:50:33.743Z,2.30
2023-02-24T04:53:06.607Z,2.45
2023-02-24T04:55:40.179Z,2.40
2023-02-24T04:58:11.252Z,2.30
2023-02-24T05:00:41.692Z,2.45
2023-02-24T05:03:13.634Z,2.40
2023-02-24T05:05:52.003Z,2.22
2023-02-24T05:08:21.085Z,2.00
2023-02-24T05:10:51.857Z,2.40
2023-02-24T05:13:22.117Z,1.92
2023-02-24T05:15:50.416Z,1.92
2023-02-24T05:18:20.201Z,2.67
2023-02-24T05:21:08.376Z,2.40
2023-02-24T05:23:39.316Z,2.60
2023-02-24T05:26:09.857Z,2.50
2023-02-24T05:28:40.513Z,3.40
2023-02-24T05:31:10.762Z,2.90
2023-02-24T05:33:39.821Z,2.30
2023-02-24T05:36:10.060Z,2.45
2023-02-24T05:38:39.012Z,2.47
2023-02-24T05:41:15.158Z,3.30
2023-02-24T05:43:48.111Z,3.30
2023-02-24T05:46:17.264Z,2.20
2023-02-24T05:48:47.166Z,2.60
2023-02-24T05:51:15.362Z,2.50
2023-02-24T05:53:43.592Z,2.95
2023-02-24T05:56:13.242Z,2.60
2023-02-24T05:58:44.977Z,2.20
2023-02-24T06:01:16.491Z,2.85
2023-02-24T06:03:48.029Z,3.42
2023-02-24T06:06:17.008Z,3.20
2023-02-24T06:08:50.061Z,3.22
2023-02-24T06:11:21.420Z,2.60
2023-02-24T06:13:50.094Z,2.50
2023-02-24T06:16:19.726Z,2.30
2023-02-24T06:18:50.726Z,2.45
2023-02-24T06:21:19.852Z,2.35
2023-02-24T06:23:48.330Z,2.55
2023-02-24T06:26:19.623Z,2.47
2023-02-24T06:28:49.986Z,2.47
2023-02-24T06:31:19.115Z,2.80
2023-02-24T06:33:48.028Z,2.30
2023-02-24T06:36:16.513Z,1.60
2023-02-24T06:38:44.912Z,2.00
2023-02-24T06:41:13.506Z,2.35
2023-02-24T06:43:44.657Z,1.80
2023-02-24T06:46:16.306Z,2.40
2023-02-24T06:48:44.744Z,1.50
2023-02-24T06:51:15.594Z,2.10
2023-02-24T06:53:44.585Z,2.30
2023-02-24T06:56:15.841Z,2.80
2023-02-24T06:58:45.201Z,2.00
2023-02-24T07:01:16.667Z,2.00
2023-02-24T07:04:06.816Z,2.40
2023-02-24T07:06:38.358Z,1.90
2023-02-24T07:09:10.889Z,2.17
2023-02-24T07:11:41.737Z,1.50
2023-02-24T07:14:11.373Z,2.13
2023-02-24T07:16:45.328Z,1.92
2023-02-24T07:19:15.205Z,2.00
2023-02-24T07:21:49.874Z,2.50
2023-02-24T07:24:24.918Z,2.20
2023-02-24T07:26:58.144Z,2.42
2023-02-24T07:29:27.608Z,2.38
2023-02-24T07:32:01.593Z,1.70
2023-02-24T07:34:31.242Z,2.40
2023-02-24T07:36:59.515Z,2.65
2023-02-24T07:39:28.013Z,3.50
2023-02-24T07:41:57.136Z,2.65
2023-02-24T07:44:25.326Z,3.33
2023-02-24T07:46:54.424Z,3.42
2023-02-24T07:49:26.056Z,2.23
2023-02-24T07:51:57.843Z,2.40
2023-02-24T07:54:30.162Z,2.50
2023-02-24T07:56:59.921Z,1.88
2023-02-24T07:59:30.920Z,2.37
2023-02-24T08:02:50.248Z,2.00
2023-02-24T08:05:45.262Z,2.03
2023-02-24T08:08:13.573Z,2.47
2023-02-24T08:10:42.321Z,2.20
2023-02-24T08:13:11.995Z,2.60
2023-02-24T08:15:40.495Z,1.98
2023-02-24T08:18:08.811Z,2.22
2023-02-24T08:20:52.298Z,2.70
2023-02-24T08:23:23.581Z,3.05
2023-02-24T08:25:53.696Z,2.13
2023-02-24T08:28:26.776Z,2.58
2023-02-24T08:30:55.095Z,2.47
2023-02-24T08:33:24.075Z,3.10
2023-02-24T08:36:00.972Z,3.45
2023-02-24T08:38:41.808Z,3.10
2023-02-24T08:41:17.820Z,2.72
2023-02-24T08:43:47.457Z,2.35
2023-02-24T08:46:19.332Z,2.40
2023-02-24T08:48:49.651Z,2.35
2023-02-24T08:51:22.839Z,2.00
2023-02-24T08:53:54.493Z,2.20
2023-02-24T08:56:25.926Z,2.05
2023-02-24T08:58:58.133Z,1.85
2023-02-24T09:01:34.706Z,2.67
2023-02-24T09:04:06.513Z,2.40
2023-02-24T09:06:43.401Z,2.40
2023-02-24T09:09:21.069Z,2.10
2023-02-24T09:11:55.821Z,1.90
2023-02-24T09:14:28.483Z,2.15
2023-02-24T09:17:05.957Z,2.10
2023-02-24T09:20:02.338Z,2.27
2023-02-24T09:22:32.764Z,2.40
2023-02-24T09:25:21.589Z,2.50
2023-02-24T09:33:05.022Z,2.33
2023-02-24T09:35:36.845Z,2.83
2023-02-24T09:38:06.590Z,2.55
2023-02-24T09:40:40.543Z,2.50
2023-02-24T09:43:17.924Z,2.70
2023-02-24T09:45:58.303Z,3.05
2023-02-24T09:48:43.630Z,2.90
2023-02-24T09:51:21.809Z,2.10
2023-02-24T09:53:56.656Z,2.10
2023-02-24T09:56:37.257Z,2.00
2023-02-24T09:59:13.495Z,2.70
2023-02-24T10:01:47.133Z,2.53
2023-02-24T10:04:48.997Z,2.30
2023-02-24T10:07:19.666Z,2.08
2023-02-24T10:09:53.365Z,2.03
2023-02-24T10:12:25.422Z,2.30
2023-02-24T10:15:18.656Z,2.40
2023-02-24T10:17:52.208Z,1.90
2023-02-24T10:20:31.311Z,2.60
2023-02-24T10:23:06.201Z,2.05
2023-02-24T10:25:53.798Z,1.60
2023-02-24T10:28:36.045Z,2.40
2023-02-24T10:31:24.803Z,1.80
2023-02-24T10:33:58.457Z,2.10
2023-02-24T10:36:35.405Z,2.08
2023-02-24T10:39:15.601Z,2.10
2023-02-24T10:41:49.206Z,2.10
2023-02-24T10:44:27.017Z,2.60
2023-02-24T10:47:12.408Z,2.35
2023-02-24T10:49:50.792Z,2.60
2023-02-24T10:52:36.674Z,2.38
2023-02-24T10:55:27.820Z,3.10
2023-02-24T10:58:06.289Z,2.72
2023-02-24T11:01:03.591Z,2.60
2023-02-24T11:03:42.035Z,1.92
2023-02-24T11:06:42.415Z,2.40
2023-02-24T11:09:32.136Z,2.37
2023-02-24T11:12:23.117Z,2.92
2023-02-24T11:15:12.063Z,2.10
2023-02-24T11:17:51.064Z,2.38
2023-02-24T11:20:42.534Z,2.15
2023-02-24T11:23:19.831Z,2.45
2023-02-24T11:25:50.535Z,2.30
2023-02-24T11:28:31.037Z,2.05
2023-02-24T11:31:11.375Z,3.03
2023-02-24T11:33:49.417Z,3.25
2023-02-24T11:36:24.082Z,2.30
2023-02-24T11:39:17.315Z,2.03
2023-02-24T11:41:53.239Z,1.90
2023-02-24T11:44:28.336Z,2.67
2023-02-24T11:47:00.663Z,2.80
2023-02-24T11:49:38.292Z,2.45
2023-02-24T11:52:10.924Z,2.30
2023-02-24T11:54:44.097Z,3.00
2023-02-24T11:57:18.754Z,2.95
2023-02-24T11:59:53.391Z,3.20
2023-02-24T12:02:30.232Z,2.50
2023-02-24T12:05:03.856Z,2.95
2023-02-24T12:07:35.901Z,2.70
2023-02-24T12:10:16.465Z,2.88
2023-02-24T12:12:52.606Z,3.00
2023-02-24T12:15:26.305Z,3.05
2023-02-24T12:18:05.504Z,3.33
2023-02-24T12:20:41.691Z,3.17
2023-02-24T12:23:18.044Z,3.40
2023-02-24T12:26:11.162Z,3.13
2023-02-24T12:28:54.656Z,3.70
2023-02-24T12:31:33.133Z,3.63
2023-02-24T12:34:09.789Z,4.45
2023-02-24T12:36:52.448Z,4.30
2023-02-24T12:39:23.668Z,4.10
2023-02-24T12:42:07.493Z,7.50
2023-02-24T12:44:45.432Z,10.50
2023-02-24T12:47:16.768Z,6.72
2023-02-24T12:50:06.885Z,7.70
2023-02-24T12:52:47.107Z,8.20
2023-02-24T12:55:22.009Z,6.50
2023-02-24T12:57:59.625Z,8.57
2023-02-24T13:00:34.588Z,7.55
2023-02-24T13:03:10.868Z,12.70
2023-02-24T13:05:46.260Z,7.78
2023-02-24T13:08:28.959Z,7.25
2023-02-24T13:11:09.952Z,8.00
2023-02-24T13:13:44.865Z,7.78
2023-02-24T13:16:13.726Z,6.10
2023-02-24T13:18:42.077Z,6.17
2023-02-24T13:21:20.568Z,5.97
2023-02-24T13:23:58.219Z,6.00
2023-02-24T13:26:28.621Z,5.00
2023-02-24T13:29:02.068Z,5.70
2023-02-24T13:31:43.473Z,5.80
2023-02-24T13:34:16.746Z,6.28
2023-02-24T13:36:49.106Z,6.13
2023-02-24T13:39:27.209Z,7.80
2023-02-24T13:42:04.754Z,7.85
2023-02-24T13:44:33.746Z,5.70
2023-02-24T13:47:34.776Z,5.97
2023-02-24T13:50:20.998Z,6.20
2023-02-24T13:53:08.604Z,6.60
2023-02-24T13:55:50.287Z,5.77
2023-02-24T13:58:52.510Z,6.25
2023-02-24T14:01:22.541Z,5.90
2023-02-24T14:04:06.684Z,6.10
2023-02-24T14:06:36.589Z,6.40
2023-02-24T14:09:07.401Z,7.55
2023-02-24T14:11:38.758Z,8.27
2023-02-24T14:14:07.363Z,8.40
2023-02-24T14:16:39.881Z,7.10
2023-02-24T14:19:16.230Z,7.50
2023-02-24T14:21:50.392Z,7.35
2023-02-24T14:24:19.326Z,7.07
2023-02-24T14:26:52.026Z,8.07
2023-02-24T14:29:22.986Z,9.13
2023-02-24T14:31:53.875Z,8.65
2023-02-24T14:34:25.150Z,8.88
2023-02-24T14:36:56.652Z,9.30
2023-02-24T14:39:26.496Z,9.57
2023-02-24T14:42:13.338Z,10.52
2023-02-24T14:44:46.340Z,10.18
2023-02-24T14:47:16.422Z,10.90
2023-02-24T14:49:54.876Z,10.60
2023-02-24T14:52:30.110Z,10.80
2023-02-24T14:55:02.647Z,11.45
2023-02-24T14:57:36.528Z,12.45
2023-02-24T15:00:11.563Z,11.52
2023-02-24T15:02:47.315Z,11.13
2023-02-24T15:05:17.037Z,12.80
2023-02-24T15:07:46.095Z,11.07
2023-02-24T15:10:23.766Z,12.60
2023-02-24T15:12:59.197Z,11.57
2023-02-24T15:15:34.145Z,11.80
2023-02-24T15:18:05.488Z,22.98
2023-02-24T15:20:37.168Z,29.47
2023-02-24T15:23:05.935Z,31.42
2023-02-24T15:25:43.627Z,25.65
2023-02-24T15:28:26.672Z,21.98
2023-02-24T15:31:09.783Z,21.80
2023-02-24T15:33:40.534Z,39.00
2023-02-24T15:36:12.449Z,18.08
2023-02-24T15:38:43.889Z,14.20
2023-02-24T15:41:12.802Z,14.05
2023-02-24T15:43:48.501Z,13.90
2023-02-24T15:46:26.459Z,13.90
2023-02-24T15:48:55.976Z,14.50
2023-02-24T15:51:35.372Z,13.95
2023-02-24T15:54:04.954Z,14.00
2023-02-24T15:56:35.647Z,12.65
2023-02-24T15:59:06.065Z,13.68
2023-02-24T16:01:35.191Z,13.65
2023-02-24T16:04:04.787Z,13.23
2023-02-24T16:06:33.957Z,15.18
2023-02-24T16:09:05.304Z,19.05
2023-02-24T16:11:38.547Z,19.05
2023-02-24T16:14:10.937Z,14.95
2023-02-24T16:16:39.507Z,15.38
2023-02-24T16:19:08.243Z,12.40
2023-02-24T16:21:36.458Z,12.85
2023-02-24T16:24:04.741Z,13.57
2023-02-24T16:26:37.045Z,9.93
2023-02-24T16:29:11.745Z,5.50
2023-02-24T16:31:42.099Z,3.90
2023-02-24T16:34:19.308Z,3.17
2023-02-24T16:36:48.295Z,3.60
2023-02-24T16:39:16.508Z,3.83
2023-02-24T16:41:44.804Z,2.80
2023-02-24T16:44:12.991Z,3.60
2023-02-24T16:46:45.502Z,3.78
2023-02-24T16:49:19.024Z,3.13
2023-02-24T16:51:47.349Z,2.78
2023-02-24T16:54:15.618Z,3.17
2023-02-24T16:56:45.257Z,3.40
2023-02-24T16:59:13.632Z,2.33
2023-02-24T17:01:44.108Z,2.90
2023-02-24T17:04:14.548Z,3.00
2023-02-24T17:06:43.257Z,3.45
2023-02-24T17:09:15.496Z,3.83
2023-02-24T17:11:44.108Z,3.88
2023-02-24T17:14:17.480Z,7.43
2023-02-24T17:16:47.785Z,6.10
2023-02-24T17:19:16.221Z,4.93
2023-02-24T17:21:46.135Z,3.97
2023-02-24T17:24:16.862Z,2.70
2023-02-24T17:26:45.187Z,2.58
2023-02-24T17:29:14.764Z,2.10
2023-02-24T17:31:43.630Z,2.20
2023-02-24T17:34:13.495Z,2.45
2023-02-24T17:36:42.278Z,2.00
2023-02-24T17:39:10.615Z,2.20
2023-02-24T17:41:38.785Z,2.40
2023-02-24T17:44:08.783Z,2.83
2023-02-24T17:46:37.220Z,2.60
2023-02-24T17:49:06.059Z,1.95
2023-02-24T17:51:35.825Z,1.75
2023-02-24T17:54:04.415Z,1.90
2023-02-24T17:56:32.610Z,1.63
2023-02-24T17:59:01.114Z,1.67
2023-02-24T18:01:29.834Z,1.50
2023-02-24T18:03:58.301Z,1.17
2023-02-24T18:06:27.018Z,1.55
2023-02-24T18:08:56.682Z,1.40
2023-02-24T18:11:24.883Z,1.98
2023-02-24T18:13:55.315Z,1.60
2023-02-24T18:16:24.155Z,1.70
2023-02-24T18:18:52.901Z,2.30
2023-02-24T18:21:21.277Z,2.83
2023-02-24T18:23:50.204Z,2.13
2023-02-24T18:26:21.525Z,1.50
2023-02-24T18:28:52.932Z,1.80
2023-02-24T18:31:22.723Z,1.30
2023-02-24T18:33:51.246Z,1.17
2023-02-24T18:36:20.326Z,0.88
2023-02-24T18:38:48.909Z,0.70
2023-02-24T18:41:20.057Z,0.80
2023-02-24T18:43:49.687Z,0.80
2023-02-24T18:46:18.729Z,1.73
2023-02-24T18:48:48.054Z,1.42
2023-02-24T18:51:18.654Z,1.40
2023-02-24T18:53:47.433Z,1.10
2023-02-24T18:56:17.829Z,2.00
2023-02-24T18:58:49.435Z,2.25
2023-02-24T19:01:20.969Z,1.52
2023-02-24T19:03:51.147Z,1.52
2023-02-24T19:06:21.423Z,1.10
2023-02-24T19:08:52.139Z,1.00
2023-02-24T19:11:21.817Z,3.00
2023-02-24T19:13:51.962Z,4.05
2023-02-24T19:16:20.990Z,2.30
2023-02-24T19:18:52.290Z,1.83
2023-02-24T19:21:22.136Z,2.13
2023-02-24T19:23:51.001Z,2.05
2023-02-24T19:26:22.143Z,2.30
2023-02-24T19:28:52.410Z,1.60
2023-02-24T19:31:22.484Z,1.77
2023-02-24T19:33:53.815Z,1.10
2023-02-24T19:36:22.653Z,1.60
2023-02-24T19:38:51.472Z,1.75
2023-02-24T19:41:19.683Z,1.90
2023-02-24T19:43:47.995Z,8.45
2023-02-24T19:46:18.526Z,6.78
2023-02-24T19:48:47.046Z,12.77
2023-02-24T19:51:16.701Z,1.77
2023-02-24T19:53:45.316Z,2.10
2023-02-24T19:56:13.546Z,1.85
2023-02-24T19:58:41.899Z,1.40
2023-02-24T20:01:11.584Z,1.30
2023-02-24T20:03:42.574Z,1.20
2023-02-24T20:06:18.370Z,1.40
2023-02-24T20:08:46.985Z,1.10
2023-02-24T20:11:15.920Z,1.30
2023-02-24T20:13:44.234Z,1.30
2023-02-24T20:16:14.429Z,1.33
2023-02-24T20:18:44.967Z,1.10
2023-02-24T20:21:14.071Z,1.30
2023-02-24T20:23:42.908Z,1.95
2023-02-24T20:26:14.014Z,1.85
2023-02-24T20:28:42.305Z,1.95
2023-02-24T20:31:12.722Z,1.67
2023-02-24T20:33:41.833Z,1.70
2023-02-24T20:36:14.284Z,2.20
2023-02-24T20:38:42.526Z,2.13
2023-02-24T20:41:11.530Z,1.75
2023-02-24T20:43:40.123Z,1.60
2023-02-24T20:46:13.315Z,2.30
2023-02-24T20:48:41.687Z,1.70
2023-02-24T20:51:13.014Z,3.90
2023-02-24T20:53:55.992Z,4.18
2023-02-24T20:56:26.315Z,3.73
2023-02-24T20:58:59.960Z,3.15
2023-02-24T21:01:29.412Z,2.95
2023-02-24T21:03:58.381Z,2.50
2023-02-24T21:06:28.454Z,2.22
2023-02-24T21:08:56.828Z,2.10
2023-02-24T21:11:25.283Z,2.42
2023-02-24T21:13:53.606Z,2.30
2023-02-24T21:16:22.885Z,2.33
2023-02-24T21:18:53.248Z,2.13
2023-02-24T21:21:22.070Z,2.10
2023-02-24T21:23:52.125Z,2.67
2023-02-24T21:26:21.232Z,2.67
2023-02-24T21:28:49.640Z,2.30
2023-02-24T21:31:20.443Z,3.15
2023-02-24T21:33:52.286Z,2.80
2023-02-24T21:36:24.369Z,2.17
2023-02-24T21:38:55.071Z,1.98
2023-02-24T21:41:24.045Z,1.70
2023-02-24T21:43:54.765Z,2.55
2023-02-24T21:46:28.118Z,2.40
2023-02-24T21:48:57.779Z,1.73
2023-02-24T21:51:27.023Z,1.50
2023-02-24T21:53:57.688Z,2.50
2023-02-24T21:56:27.786Z,2.00
2023-02-24T21:58:59.102Z,2.05
2023-02-24T22:01:29.322Z,2.85
2023-02-24T22:03:58.301Z,2.10
2023-02-24T22:06:30.273Z,2.58
2023-02-24T22:09:02.132Z,2.43
2023-02-24T22:11:31.842Z,2.85
2023-02-24T22:14:00.053Z,2.72
2023-02-24T22:16:29.139Z,2.15
2023-02-24T22:18:57.497Z,2.40
2023-02-24T22:21:28.006Z,2.25
2023-02-24T22:23:59.320Z,2.58
2023-02-24T22:26:30.458Z,2.30
2023-02-24T22:28:59.227Z,2.33
2023-02-24T22:31:30.078Z,2.00
2023-02-24T22:33:58.861Z,2.40
2023-02-24T22:36:29.471Z,2.33
2023-02-24T22:38:59.895Z,1.57
2023-02-24T22:41:31.571Z,2.67
2023-02-24T22:44:00.862Z,2.10
2023-02-24T22:46:32.192Z,1.90
2023-02-24T22:49:00.609Z,2.35
2023-02-24T22:51:29.207Z,2.07
2023-02-24T22:53:57.906Z,2.00
2023-02-24T22:56:29.158Z,2.10
2023-02-24T22:59:00.606Z,1.73
2023-02-24T23:01:30.727Z,1.90
2023-02-24T23:04:01.485Z,1.70
2023-02-24T23:06:30.660Z,2.03
2023-02-24T23:09:00.645Z,2.13
2023-02-24T23:11:32.711Z,2.13
2023-02-24T23:14:05.992Z,3.00
2023-02-24T23:16:36.791Z,3.10
2023-02-24T23:19:06.625Z,2.30
2023-02-24T23:21:37.974Z,2.65
2023-02-24T23:24:08.152Z,1.80
2023-02-24T23:26:38.224Z,2.13
2023-02-24T23:29:08.454Z,2.10
2023-02-24T23:31:37.228Z,2.25
2023-02-24T23:34:06.963Z,2.50
2023-02-24T23:36:37.101Z,2.10
2023-02-24T23:39:05.943Z,2.50
2023-02-24T23:41:35.206Z,2.38
2023-02-24T23:44:03.566Z,2.20
2023-02-24T23:46:33.893Z,2.47
2023-02-24T23:49:02.330Z,2.30
2023-02-24T23:51:45.811Z,2.13
2023-02-24T23:54:16.521Z,2.05
2023-02-24T23:56:44.794Z,1.60
2023-02-24T23:59:13.073Z,2.67
